createdAt,value
2023-03-20T00:00:21.681Z,67.25
2023-03-20T00:03:28.359Z,67.26
2023-03-20T00:06:40.259Z,67.44
2023-03-20T00:09:47.326Z,67.57
2023-03-20T00:12:54.073Z,67.65
2023-03-20T00:16:00.662Z,67.71
2023-03-20T00:19:06.633Z,67.73
2023-03-20T00:22:13.794Z,67.77
2023-03-20T00:25:24.887Z,67.70
2023-03-20T00:29:00.122Z,67.68
2023-03-20T00:32:08.255Z,67.69
2023-03-20T00:35:14.173Z,67.69
2023-03-20T00:38:20.344Z,67.72
2023-03-20T00:41:44.792Z,67.69
2023-03-20T00:44:53.377Z,67.50
2023-03-20T00:48:00.614Z,67.50
2023-03-20T00:51:05.444Z,67.52
2023-03-20T00:54:12.743Z,67.50
2023-03-20T00:57:29.276Z,67.60
2023-03-20T01:00:55.219Z,67.82
2023-03-20T01:04:02.087Z,67.75
2023-03-20T01:07:08.114Z,67.67
2023-03-20T01:10:15.180Z,67.78
2023-03-20T01:13:39.888Z,67.86
2023-03-20T01:16:46.439Z,67.84
2023-03-20T01:19:52.222Z,67.93
2023-03-20T01:22:59.254Z,68.04
2023-03-20T01:26:05.405Z,68.10
2023-03-20T01:29:11.530Z,68.17
2023-03-20T01:32:17.488Z,68.00
2023-03-20T01:35:30.623Z,67.79
2023-03-20T01:38:42.999Z,67.88
2023-03-20T01:41:48.762Z,68.00
2023-03-20T01:44:54.641Z,68.15
2023-03-20T01:48:00.794Z,68.10
2023-03-20T01:51:06.628Z,67.86
2023-03-20T01:54:16.573Z,67.91
2023-03-20T01:57:31.789Z,68.05
2023-03-20T02:00:38.924Z,68.09
2023-03-20T02:03:45.333Z,68.16
2023-03-20T02:06:55.673Z,68.00
2023-03-20T02:10:21.847Z,68.18
2023-03-20T02:13:29.278Z,68.27
2023-03-20T02:16:21.428Z,68.32
2023-03-20T02:19:38.822Z,68.40
2023-03-20T02:23:09.721Z,68.46
2023-03-20T02:26:49.383Z,68.44
2023-03-20T02:30:11.848Z,68.48
2023-03-20T02:33:40.071Z,68.45
2023-03-20T02:37:12.629Z,68.49
2023-03-20T02:40:32.054Z,68.59
2023-03-20T02:43:48.924Z,68.65
2023-03-20T02:47:38.512Z,68.72
2023-03-20T02:50:56.001Z,68.71
2023-03-20T02:54:11.571Z,68.63
2023-03-20T02:57:24.666Z,68.54
2023-03-20T03:00:50.533Z,68.46
2023-03-20T03:04:05.808Z,68.40
2023-03-20T03:07:13.191Z,68.51
2023-03-20T03:10:36.611Z,68.62
2023-03-20T03:13:44.889Z,68.57
2023-03-20T03:16:52.223Z,68.58
2023-03-20T03:20:05.380Z,68.57
2023-03-20T03:23:11.979Z,68.65
2023-03-20T03:26:18.176Z,68.67
2023-03-20T03:29:32.091Z,68.75
2023-03-20T03:32:47.752Z,68.72
2023-03-20T03:35:55.151Z,68.68
2023-03-20T03:39:11.700Z,68.87
2023-03-20T03:42:51.084Z,68.94
2023-03-20T03:46:02.491Z,68.96
2023-03-20T03:49:11.547Z,69.01
2023-03-20T03:52:26.019Z,68.95
2023-03-20T03:55:42.961Z,68.95
2023-03-20T03:58:58.195Z,68.89
2023-03-20T04:02:05.638Z,68.90
2023-03-20T04:05:10.805Z,69.10
2023-03-20T04:08:17.310Z,69.22
2023-03-20T04:11:32.704Z,69.11
2023-03-20T04:14:38.662Z,68.95
2023-03-20T04:17:44.760Z,69.04
2023-03-20T04:20:50.633Z,69.21
2023-03-20T04:23:56.793Z,69.33
2023-03-20T04:27:01.781Z,69.29
2023-03-20T04:30:09.045Z,69.00
2023-03-20T04:33:35.180Z,69.09
2023-03-20T04:36:52.517Z,69.06
2023-03-20T04:40:02.474Z,69.08
2023-03-20T04:43:07.238Z,69.08
2023-03-20T04:46:14.664Z,69.00
2023-03-20T04:49:21.618Z,69.10
2023-03-20T04:52:29.369Z,69.03
2023-03-20T04:55:35.961Z,68.95
2023-03-20T04:58:43.283Z,69.07
2023-03-20T05:01:50.992Z,68.96
2023-03-20T05:04:58.286Z,69.05
2023-03-20T05:08:08.029Z,69.00
2023-03-20T05:11:16.474Z,69.01
2023-03-20T05:14:24.979Z,68.90
2023-03-20T05:17:42.705Z,68.92
2023-03-20T05:20:53.280Z,69.04
2023-03-20T05:24:04.041Z,69.12
2023-03-20T05:27:15.104Z,69.07
2023-03-20T05:30:56.304Z,68.96
2023-03-20T05:34:05.091Z,69.05
2023-03-20T05:37:14.226Z,68.97
2023-03-20T05:40:41.210Z,69.01
2023-03-20T05:43:49.579Z,69.11
2023-03-20T05:47:13.863Z,69.11
2023-03-20T05:50:22.845Z,69.24
2023-03-20T05:53:44.957Z,69.24
2023-03-20T05:57:01.243Z,69.17
2023-03-20T06:00:12.363Z,69.13
2023-03-20T06:03:17.389Z,69.32
2023-03-20T06:06:33.237Z,69.44
2023-03-20T06:09:38.548Z,69.52
2023-03-20T06:12:44.254Z,69.65
2023-03-20T06:15:53.726Z,69.71
2023-03-20T06:19:13.218Z,69.62
2023-03-20T06:22:19.683Z,69.52
2023-03-20T06:25:25.683Z,69.49
2023-03-20T06:28:32.245Z,69.24
2023-03-20T06:31:41.441Z,68.94
2023-03-20T06:34:49.107Z,68.89
2023-03-20T06:37:56.077Z,69.09
2023-03-20T06:41:02.725Z,68.98
2023-03-20T06:44:10.141Z,69.01
2023-03-20T06:47:21.894Z,69.23
2023-03-20T06:50:28.622Z,69.39
2023-03-20T06:53:36.240Z,69.33
2023-03-20T06:56:46.190Z,69.08
2023-03-20T06:59:53.347Z,69.02
2023-03-20T07:03:02.269Z,68.99
2023-03-20T07:06:14.270Z,69.23
2023-03-20T07:09:20.873Z,69.21
2023-03-20T07:12:32.951Z,69.24
2023-03-20T07:16:04.085Z,69.41
2023-03-20T07:19:03.552Z,69.09
2023-03-20T07:22:15.091Z,69.24
2023-03-20T07:25:39.465Z,69.40
2023-03-20T07:28:33.539Z,69.41
2023-03-20T07:31:44.018Z,69.10
2023-03-20T07:34:51.832Z,69.04
2023-03-20T07:38:00.039Z,68.91
2023-03-20T07:41:10.388Z,68.96
2023-03-20T07:44:18.576Z,68.77
2023-03-20T07:47:24.505Z,68.87
2023-03-20T07:50:29.648Z,69.04
2023-03-20T07:53:35.098Z,69.13
2023-03-20T07:56:44.866Z,69.29
2023-03-20T07:59:49.873Z,69.18
2023-03-20T08:03:00.159Z,69.21
2023-03-20T08:06:06.909Z,69.27
2023-03-20T08:09:21.561Z,69.06
2023-03-20T08:12:28.009Z,68.67
2023-03-20T08:15:36.168Z,68.92
2023-03-20T08:18:43.537Z,68.85
2023-03-20T08:21:50.263Z,68.83
2023-03-20T08:24:57.209Z,68.97
2023-03-20T08:28:03.804Z,68.78
2023-03-20T08:31:10.541Z,68.52
2023-03-20T08:34:18.466Z,68.63
2023-03-20T08:37:25.703Z,68.75
2023-03-20T08:40:35.062Z,68.70
2023-03-20T08:43:46.552Z,68.61
2023-03-20T08:46:54.463Z,68.59
2023-03-20T08:49:59.996Z,68.45
2023-03-20T08:53:05.595Z,68.29
2023-03-20T08:56:10.841Z,68.14
2023-03-20T08:59:17.840Z,68.30
2023-03-20T09:02:27.543Z,68.39
2023-03-20T09:05:39.782Z,68.26
2023-03-20T09:08:45.304Z,68.48
2023-03-20T09:11:52.583Z,68.30
2023-03-20T09:15:01.078Z,68.00
2023-03-20T09:18:07.342Z,67.93
2023-03-20T09:21:12.279Z,68.10
2023-03-20T09:24:19.220Z,68.26
2023-03-20T09:27:25.146Z,68.11
2023-03-20T09:30:29.766Z,68.16
2023-03-20T09:33:35.982Z,68.23
2023-03-20T09:36:42.750Z,68.14
2023-03-20T09:39:48.518Z,68.11
2023-03-20T09:43:09.827Z,68.17
2023-03-20T09:46:34.874Z,67.91
2023-03-20T09:50:05.645Z,67.63
2023-03-20T09:53:34.582Z,67.51
2023-03-20T09:56:42.851Z,67.68
2023-03-20T09:59:49.762Z,67.51
2023-03-20T10:03:15.163Z,67.32
2023-03-20T10:06:28.876Z,67.70
2023-03-20T10:09:45.029Z,67.63
2023-03-20T10:13:06.677Z,67.61
2023-03-20T10:16:24.008Z,67.65
2023-03-20T10:19:52.362Z,67.57
2023-03-20T10:23:03.995Z,67.46
2023-03-20T10:26:13.349Z,67.41
2023-03-20T10:29:26.799Z,67.50
2023-03-20T10:32:44.889Z,67.53
2023-03-20T10:36:10.080Z,67.25
2023-03-20T10:39:22.428Z,67.11
2023-03-20T10:42:33.098Z,67.02
2023-03-20T10:45:46.070Z,67.17
2023-03-20T10:49:03.483Z,67.07
2023-03-20T10:52:05.775Z,66.82
2023-03-20T10:55:25.509Z,66.69
2023-03-20T10:58:38.224Z,66.67
2023-03-20T11:01:45.328Z,66.49
2023-03-20T11:04:53.666Z,66.39
2023-03-20T11:08:04.399Z,66.64
2023-03-20T11:11:22.008Z,66.76
2023-03-20T11:14:35.788Z,66.44
2023-03-20T11:17:47.471Z,66.28
2023-03-20T11:21:11.351Z,66.08
2023-03-20T11:24:19.716Z,66.04
2023-03-20T11:27:38.497Z,66.14
2023-03-20T11:31:03.509Z,65.80
2023-03-20T11:34:08.615Z,65.98
2023-03-20T11:37:17.513Z,66.38
2023-03-20T11:40:36.672Z,66.04
2023-03-20T11:43:43.274Z,65.49
2023-03-20T11:46:51.591Z,65.11
2023-03-20T11:50:06.038Z,65.25
2023-03-20T11:53:10.629Z,65.49
2023-03-20T11:56:25.145Z,65.53
2023-03-20T11:59:32.088Z,65.71
2023-03-20T12:02:38.212Z,65.44
2023-03-20T12:05:51.610Z,65.11
2023-03-20T12:08:59.143Z,64.92
2023-03-20T12:12:22.162Z,64.91
2023-03-20T12:15:51.552Z,65.04
2023-03-20T12:19:18.441Z,64.71
2023-03-20T12:22:45.568Z,64.85
2023-03-20T12:26:14.456Z,65.25
2023-03-20T12:29:39.307Z,65.16
2023-03-20T12:33:02.762Z,64.77
2023-03-20T12:36:11.718Z,64.54
2023-03-20T12:39:21.086Z,64.66
2023-03-20T12:42:43.727Z,64.26
2023-03-20T12:46:18.003Z,64.15
2023-03-20T12:49:34.165Z,64.11
2023-03-20T12:53:18.224Z,64.33
2023-03-20T12:56:49.315Z,64.44
2023-03-20T13:00:06.624Z,64.65
2023-03-20T13:03:27.803Z,64.60
2023-03-20T13:06:46.931Z,64.66
2023-03-20T13:10:37.954Z,64.64
2023-03-20T13:14:13.475Z,64.53
2023-03-20T13:17:43.758Z,64.59
2023-03-20T13:20:58.330Z,64.56
2023-03-20T13:24:35.235Z,64.22
2023-03-20T13:28:03.940Z,63.91
2023-03-20T13:31:38.157Z,64.26
2023-03-20T13:34:54.675Z,64.18
2023-03-20T13:38:11.354Z,64.45
2023-03-20T13:41:21.529Z,64.60
2023-03-20T13:44:29.226Z,64.45
2023-03-20T13:47:40.430Z,63.90
2023-03-20T13:50:56.862Z,64.12
2023-03-20T13:54:32.183Z,63.61
2023-03-20T13:58:00.548Z,63.79
2023-03-20T14:01:34.415Z,63.57
2023-03-20T14:04:40.298Z,63.54
2023-03-20T14:07:51.139Z,63.43
2023-03-20T14:10:57.627Z,63.65
2023-03-20T14:14:13.725Z,63.03
2023-03-20T14:17:35.026Z,63.08
2023-03-20T14:20:50.814Z,63.14
2023-03-20T14:23:58.668Z,63.17
2023-03-20T14:27:09.201Z,62.80
2023-03-20T14:30:17.011Z,62.32
2023-03-20T14:33:33.657Z,62.09
2023-03-20T14:36:46.048Z,61.54
2023-03-20T14:40:04.987Z,61.56
2023-03-20T14:43:15.477Z,61.45
2023-03-20T14:46:47.373Z,61.31
2023-03-20T14:50:37.554Z,61.00
2023-03-20T14:53:44.864Z,60.92
2023-03-20T14:56:54.812Z,60.76
2023-03-20T15:00:01.758Z,60.99
2023-03-20T15:03:19.265Z,60.76
2023-03-20T15:06:26.912Z,60.35
2023-03-20T15:09:34.601Z,60.28
2023-03-20T15:12:42.611Z,60.35
2023-03-20T15:15:49.749Z,60.38
2023-03-20T15:19:03.861Z,60.52
2023-03-20T15:22:11.010Z,60.45
2023-03-20T15:25:18.023Z,59.94
2023-03-20T15:28:42.209Z,59.93
2023-03-20T15:31:59.842Z,60.14
2023-03-20T15:35:02.466Z,60.50
2023-03-20T15:38:11.996Z,60.31
2023-03-20T15:41:30.559Z,60.26
2023-03-20T15:44:39.465Z,60.45
2023-03-20T15:47:47.364Z,60.58
2023-03-20T15:50:56.009Z,60.71
2023-03-20T15:54:03.539Z,60.64
2023-03-20T15:57:13.391Z,60.55
2023-03-20T16:00:22.764Z,60.56
2023-03-20T16:03:34.685Z,60.65
2023-03-20T16:06:40.203Z,60.65
2023-03-20T16:09:46.317Z,60.49
2023-03-20T16:12:54.512Z,60.51
2023-03-20T16:16:02.909Z,60.54
2023-03-20T16:19:11.161Z,60.59
2023-03-20T16:22:34.348Z,60.64
2023-03-20T16:25:41.121Z,60.67
2023-03-20T16:28:47.062Z,60.80
2023-03-20T16:31:55.856Z,60.89
2023-03-20T16:35:06.623Z,60.94
2023-03-20T16:38:14.227Z,61.01
2023-03-20T16:41:45.766Z,61.21
2023-03-20T16:44:51.455Z,61.24
2023-03-20T16:47:58.172Z,61.37
2023-03-20T16:51:04.793Z,61.45
2023-03-20T16:54:12.960Z,61.49
2023-03-20T16:57:24.081Z,61.60
2023-03-20T17:00:40.437Z,61.76
2023-03-20T17:04:03.934Z,61.79
2023-03-20T17:07:12.625Z,61.83
2023-03-20T17:10:36.690Z,61.89
2023-03-20T17:13:43.176Z,61.73
2023-03-20T17:16:50.588Z,61.67
2023-03-20T17:19:49.548Z,61.70
2023-03-20T17:22:43.172Z,61.73
2023-03-20T17:25:48.223Z,61.85
2023-03-20T17:28:54.403Z,61.92
2023-03-20T17:32:01.057Z,61.91
2023-03-20T17:35:07.164Z,62.08
2023-03-20T17:38:14.015Z,62.07
2023-03-20T17:41:23.434Z,62.06
2023-03-20T17:44:29.349Z,62.16
2023-03-20T17:47:41.679Z,62.33
2023-03-20T17:50:47.238Z,62.43
2023-03-20T17:53:53.672Z,62.47
2023-03-20T17:57:02.023Z,62.56
2023-03-20T18:00:07.694Z,62.62
2023-03-20T18:03:14.319Z,62.31
2023-03-20T18:06:22.175Z,62.37
2023-03-20T18:09:28.836Z,62.60
2023-03-20T18:12:35.632Z,62.75
2023-03-20T18:15:42.129Z,62.79
2023-03-20T18:18:49.274Z,62.90
2023-03-20T18:21:54.112Z,63.00
2023-03-20T18:25:00.634Z,63.03
2023-03-20T18:28:12.501Z,63.07
2023-03-20T18:31:20.891Z,63.08
2023-03-20T18:34:29.319Z,63.10
2023-03-20T18:37:36.320Z,62.84
2023-03-20T18:40:51.405Z,62.78
2023-03-20T18:43:58.419Z,62.79
2023-03-20T18:47:05.052Z,62.99
2023-03-20T18:50:10.897Z,63.19
2023-03-20T18:53:18.919Z,63.30
2023-03-20T18:56:33.489Z,63.40
2023-03-20T18:59:38.698Z,63.51
2023-03-20T19:02:45.316Z,63.66
2023-03-20T19:05:52.502Z,63.71
2023-03-20T19:09:00.954Z,63.56
2023-03-20T19:12:06.087Z,63.26
2023-03-20T19:15:12.037Z,63.13
2023-03-20T19:18:29.376Z,63.15
2023-03-20T19:21:35.642Z,63.12
2023-03-20T19:24:43.263Z,63.15
2023-03-20T19:27:50.754Z,63.30
2023-03-20T19:30:57.570Z,63.33
2023-03-20T19:34:05.450Z,63.45
2023-03-20T19:37:12.334Z,63.59
2023-03-20T19:40:18.418Z,63.76
2023-03-20T19:43:24.255Z,63.92
2023-03-20T19:46:41.219Z,63.95
2023-03-20T19:49:40.523Z,63.81
2023-03-20T19:52:46.730Z,63.86
2023-03-20T19:55:54.122Z,63.98
2023-03-20T19:59:00.070Z,63.88
2023-03-20T20:02:07.804Z,63.89
2023-03-20T20:05:14.723Z,64.00
2023-03-20T20:08:38.973Z,64.04
2023-03-20T20:11:33.273Z,64.14
2023-03-20T20:14:39.723Z,64.14
2023-03-20T20:17:44.765Z,64.16
2023-03-20T20:21:42.682Z,64.19
2023-03-20T20:24:00.206Z,64.31
2023-03-20T20:27:17.945Z,64.32
2023-03-20T20:30:16.397Z,64.28
2023-03-20T20:33:28.704Z,64.34
2023-03-20T20:37:26.030Z,64.44
2023-03-20T20:39:41.714Z,64.50
2023-03-20T20:42:51.136Z,64.58
2023-03-20T20:45:56.909Z,64.47
2023-03-20T20:49:18.161Z,64.35
2023-03-20T20:52:11.079Z,64.43
2023-03-20T20:55:25.305Z,64.57
2023-03-20T20:58:26.265Z,64.62
2023-03-20T21:01:34.536Z,64.75
2023-03-20T21:04:41.533Z,64.80
2023-03-20T21:07:48.164Z,64.73
2023-03-20T21:10:54.027Z,64.74
2023-03-20T21:14:00.494Z,64.73
2023-03-20T21:17:08.390Z,64.65
2023-03-20T21:20:15.580Z,64.70
2023-03-20T21:23:22.205Z,64.55
2023-03-20T21:26:28.960Z,64.54
2023-03-20T21:29:34.846Z,64.67
2023-03-20T21:32:42.419Z,64.69
2023-03-20T21:35:49.712Z,64.87
2023-03-20T21:39:11.817Z,64.97
2023-03-20T21:42:05.689Z,64.92
2023-03-20T21:46:10.834Z,64.92
2023-03-20T21:48:58.340Z,64.94
2023-03-20T21:52:28.893Z,65.00
2023-03-20T21:58:38.416Z,65.10
2023-03-20T22:05:02.012Z,65.36
2023-03-20T22:14:33.050Z,65.36
2023-03-20T22:20:36.328Z,65.58
2023-03-20T22:23:47.962Z,65.58
2023-03-20T22:27:13.008Z,65.59
2023-03-20T22:30:08.534Z,65.71
2023-03-20T22:36:33.257Z,65.74
2023-03-20T22:45:11.229Z,65.83
2023-03-20T22:48:17.689Z,65.83
2023-03-20T22:51:32.634Z,65.95
2023-03-20T22:54:32.117Z,66.02
2023-03-20T22:57:45.606Z,65.97
2023-03-20T23:00:45.831Z,66.03
2023-03-20T23:03:51.627Z,66.17
2023-03-20T23:06:59.530Z,66.24
2023-03-20T23:10:05.810Z,66.05
2023-03-20T23:13:11.709Z,66.06
2023-03-20T23:16:18.583Z,66.19
2023-03-20T23:19:26.514Z,66.29
2023-03-20T23:22:33.234Z,66.43
2023-03-20T23:25:40.636Z,66.30
2023-03-20T23:28:48.787Z,66.18
2023-03-20T23:31:55.173Z,66.11
2023-03-20T23:35:01.880Z,66.35
2023-03-20T23:38:08.207Z,66.62
2023-03-20T23:41:14.327Z,66.74
2023-03-20T23:44:20.742Z,66.60
2023-03-20T23:47:30.003Z,66.69
2023-03-20T23:50:46.084Z,66.89
2023-03-20T23:53:44.658Z,66.95
2023-03-20T23:56:49.633Z,67.06
2023-03-20T23:59:55.563Z,67.14
